createdAt,value
2017-12-16T00:01:23.055Z,7.37
2017-12-16T00:03:50.686Z,8.00
2017-12-16T00:06:18.365Z,7.80
2017-12-16T00:08:44.671Z,7.50
2017-12-16T00:11:11.207Z,7.20
2017-12-16T00:13:37.665Z,8.20
2017-12-16T00:16:05.664Z,9.30
2017-12-16T00:18:32.195Z,8.97
2017-12-16T00:20:59.371Z,9.13
2017-12-16T00:23:26.018Z,8.97
2017-12-16T00:25:52.565Z,9.37
2017-12-16T00:28:19.191Z,9.90
2017-12-16T00:30:45.494Z,9.17
2017-12-16T00:33:12.215Z,10.67
2017-12-16T00:35:40.032Z,10.33
2017-12-16T00:38:06.403Z,10.00
2017-12-16T00:40:34.935Z,10.00
2017-12-16T00:43:01.444Z,10.50
2017-12-16T00:45:29.830Z,10.90
2017-12-16T00:47:56.344Z,10.23
2017-12-16T00:50:22.933Z,10.93
2017-12-16T00:52:50.323Z,11.57
2017-12-16T00:55:17.636Z,10.93
2017-12-16T00:57:46.051Z,10.83
2017-12-16T01:00:13.735Z,11.47
2017-12-16T01:02:41.894Z,10.70
2017-12-16T01:05:08.364Z,12.70
2017-12-16T01:07:34.846Z,10.73
2017-12-16T01:10:01.294Z,11.13
2017-12-16T01:12:31.334Z,10.63
2017-12-16T01:14:59.210Z,10.80
2017-12-16T01:17:26.638Z,10.50
2017-12-16T01:19:55.179Z,11.30
2017-12-16T01:22:22.933Z,11.93
2017-12-16T01:24:51.325Z,10.43
2017-12-16T01:27:17.675Z,10.67
2017-12-16T01:29:45.198Z,11.20
2017-12-16T01:32:12.827Z,11.80
2017-12-16T01:34:51.569Z,10.37
2017-12-16T01:37:30.375Z,9.90
2017-12-16T01:39:56.992Z,10.43
2017-12-16T01:42:23.714Z,10.53
2017-12-16T01:44:52.851Z,10.70
2017-12-16T01:47:19.395Z,10.97
2017-12-16T01:49:46.807Z,11.00
2017-12-16T01:52:13.954Z,12.07
2017-12-16T01:54:41.179Z,12.13
2017-12-16T01:57:07.701Z,12.30
2017-12-16T01:59:34.327Z,12.47
2017-12-16T02:02:00.611Z,13.17
2017-12-16T02:04:27.784Z,13.03
2017-12-16T02:06:54.111Z,12.50
2017-12-16T02:09:20.434Z,13.57
2017-12-16T02:11:47.088Z,14.17
2017-12-16T02:14:13.594Z,13.53
2017-12-16T02:16:40.256Z,13.47
2017-12-16T02:19:06.760Z,12.93
2017-12-16T02:21:33.121Z,12.43
2017-12-16T02:23:59.415Z,12.73
2017-12-16T02:26:27.069Z,13.17
2017-12-16T02:28:54.888Z,12.37
2017-12-16T02:31:22.236Z,14.47
2017-12-16T02:33:48.962Z,13.20
2017-12-16T02:36:15.496Z,11.67
2017-12-16T02:38:42.753Z,11.10
2017-12-16T02:41:09.276Z,11.60
2017-12-16T02:43:36.393Z,12.20
2017-12-16T02:46:04.300Z,12.10
2017-12-16T02:48:31.147Z,12.00
2017-12-16T02:50:57.643Z,12.50
2017-12-16T02:53:24.329Z,12.97
2017-12-16T02:55:50.844Z,12.30
2017-12-16T02:58:17.714Z,12.83
2017-12-16T03:00:44.058Z,12.80
2017-12-16T03:03:10.662Z,11.93
2017-12-16T03:05:38.458Z,13.00
2017-12-16T03:08:04.940Z,12.90
2017-12-16T03:10:31.303Z,11.80
2017-12-16T03:12:58.310Z,12.17
2017-12-16T03:15:26.754Z,11.43
2017-12-16T03:17:53.084Z,11.20
2017-12-16T03:20:20.212Z,11.57
2017-12-16T03:22:46.613Z,10.80
2017-12-16T03:25:13.147Z,10.67
2017-12-16T03:27:39.636Z,10.77
2017-12-16T03:30:07.015Z,10.50
2017-12-16T03:32:34.974Z,11.13
2017-12-16T03:35:01.328Z,10.53
2017-12-16T03:37:27.860Z,10.00
2017-12-16T03:39:54.714Z,10.53
2017-12-16T03:42:21.244Z,10.40
2017-12-16T03:44:47.564Z,9.33
2017-12-16T03:47:14.255Z,10.27
2017-12-16T03:49:43.126Z,8.50
2017-12-16T03:52:09.614Z,9.43
2017-12-16T03:54:37.251Z,9.70
2017-12-16T03:57:04.495Z,8.57
2017-12-16T03:59:31.560Z,8.53
2017-12-16T04:01:57.871Z,9.73
2017-12-16T04:04:24.214Z,8.07
2017-12-16T04:06:52.835Z,8.80
2017-12-16T04:09:19.172Z,9.17
2017-12-16T04:11:45.894Z,10.43
2017-12-16T04:14:12.580Z,9.80
2017-12-16T04:16:39.094Z,9.47
2017-12-16T04:19:05.623Z,10.33
2017-12-16T04:21:31.944Z,10.50
2017-12-16T04:23:58.468Z,11.60
2017-12-16T04:26:24.990Z,10.73
2017-12-16T04:28:55.114Z,9.90
2017-12-16T04:31:21.648Z,10.00
2017-12-16T04:33:48.774Z,10.77
2017-12-16T04:36:15.132Z,10.33
2017-12-16T04:38:42.610Z,11.37
2017-12-16T04:41:09.102Z,13.37
2017-12-16T04:43:36.614Z,11.83
2017-12-16T04:46:03.538Z,11.37
2017-12-16T04:48:31.415Z,12.67
2017-12-16T04:50:59.230Z,11.70
2017-12-16T04:53:25.792Z,11.83
2017-12-16T04:55:52.366Z,10.90
2017-12-16T04:58:19.573Z,8.83
2017-12-16T05:00:46.392Z,9.47
2017-12-16T05:03:13.049Z,10.00
2017-12-16T05:05:39.491Z,9.20
2017-12-16T05:08:07.082Z,8.63
2017-12-16T05:10:34.760Z,9.10
2017-12-16T05:13:01.987Z,6.80
2017-12-16T05:15:28.485Z,8.23
2017-12-16T05:17:56.073Z,7.10
2017-12-16T05:20:22.484Z,6.03
2017-12-16T05:22:49.111Z,6.30
2017-12-16T05:25:15.732Z,7.13
2017-12-16T05:27:42.280Z,6.53
2017-12-16T05:30:08.815Z,4.87
2017-12-16T05:32:35.586Z,5.00
2017-12-16T05:35:02.221Z,4.87
2017-12-16T05:37:28.694Z,5.40
2017-12-16T05:39:55.932Z,5.20
2017-12-16T05:42:23.474Z,5.20
2017-12-16T05:44:50.014Z,5.50
2017-12-16T05:47:18.031Z,5.13
2017-12-16T05:49:44.509Z,4.97
2017-12-16T05:52:11.194Z,5.80
2017-12-16T05:54:37.759Z,5.60
2017-12-16T05:57:04.379Z,5.93
2017-12-16T05:59:30.693Z,5.83
2017-12-16T06:01:57.357Z,6.97
2017-12-16T06:04:23.871Z,6.73
2017-12-16T06:06:50.421Z,7.17
2017-12-16T06:09:16.834Z,7.67
2017-12-16T06:11:43.353Z,6.50
2017-12-16T06:14:10.855Z,6.63
2017-12-16T06:16:38.413Z,7.27
2017-12-16T06:19:04.832Z,6.40
2017-12-16T06:21:31.144Z,7.00
2017-12-16T06:23:58.199Z,6.30
2017-12-16T06:26:25.653Z,6.57
2017-12-16T06:28:51.972Z,6.43
2017-12-16T06:31:18.543Z,6.40
2017-12-16T06:33:45.046Z,6.20
2017-12-16T06:36:11.413Z,5.83
2017-12-16T06:38:38.022Z,6.57
2017-12-16T06:41:04.524Z,6.70
2017-12-16T06:43:31.097Z,6.77
2017-12-16T06:45:58.442Z,7.30
2017-12-16T06:48:25.076Z,7.90
2017-12-16T06:50:51.556Z,8.37
2017-12-16T06:53:18.051Z,8.47
2017-12-16T06:55:46.604Z,8.50
2017-12-16T06:58:14.290Z,8.90
2017-12-16T07:00:40.831Z,8.90
2017-12-16T07:03:07.181Z,8.17
2017-12-16T07:05:33.855Z,9.43
2017-12-16T07:08:01.242Z,9.20
2017-12-16T07:10:28.373Z,10.20
2017-12-16T07:12:55.016Z,9.67
2017-12-16T07:15:21.754Z,9.97
2017-12-16T07:17:48.383Z,11.53
2017-12-16T07:20:16.034Z,11.90
2017-12-16T07:22:43.401Z,12.60
2017-12-16T07:25:10.115Z,11.50
2017-12-16T07:27:38.944Z,12.47
2017-12-16T07:30:05.312Z,10.53
2017-12-16T07:32:32.466Z,12.10
2017-12-16T07:34:59.274Z,11.33
2017-12-16T07:37:25.628Z,12.53
2017-12-16T07:39:52.872Z,11.00
2017-12-16T07:42:19.513Z,11.67
2017-12-16T07:44:46.054Z,11.10
2017-12-16T07:47:12.564Z,11.30
2017-12-16T07:49:39.725Z,12.53
2017-12-16T07:52:06.209Z,11.17
2017-12-16T07:54:32.594Z,11.77
2017-12-16T07:56:59.264Z,12.27
2017-12-16T07:59:26.744Z,11.83
2017-12-16T08:01:53.384Z,12.33
2017-12-16T08:04:20.034Z,12.80
2017-12-16T08:06:46.669Z,12.73
2017-12-16T08:09:13.334Z,13.30
2017-12-16T08:11:39.794Z,12.50
2017-12-16T08:14:06.972Z,13.53
2017-12-16T08:16:33.834Z,12.90
2017-12-16T08:19:00.464Z,13.57
2017-12-16T08:21:28.132Z,13.40
2017-12-16T08:23:55.503Z,13.57
2017-12-16T08:26:23.253Z,14.97
2017-12-16T08:28:49.794Z,14.07
2017-12-16T08:31:16.277Z,14.80
2017-12-16T08:33:43.624Z,15.13
2017-12-16T08:36:11.986Z,16.97
2017-12-16T08:38:39.214Z,14.70
2017-12-16T08:41:06.634Z,15.50
2017-12-16T08:43:34.317Z,16.20
2017-12-16T08:46:01.371Z,14.33
2017-12-16T08:48:27.812Z,14.90
2017-12-16T08:50:54.458Z,16.60
2017-12-16T08:53:20.816Z,15.10
2017-12-16T08:55:48.939Z,15.40
2017-12-16T08:58:16.485Z,15.13
2017-12-16T09:00:43.357Z,14.80
2017-12-16T09:03:11.224Z,13.93
2017-12-16T09:05:38.849Z,15.47
2017-12-16T09:08:06.155Z,17.60
2017-12-16T09:10:32.487Z,15.53
2017-12-16T09:13:00.024Z,17.43
2017-12-16T09:15:26.529Z,16.80
2017-12-16T09:17:53.444Z,15.00
2017-12-16T09:20:21.039Z,16.90
2017-12-16T09:22:47.530Z,17.20
2017-12-16T09:25:14.835Z,16.93
2017-12-16T09:27:41.555Z,15.60
2017-12-16T09:30:08.283Z,17.40
2017-12-16T09:32:34.859Z,17.20
2017-12-16T09:35:01.673Z,16.93
2017-12-16T09:37:27.934Z,16.13
2017-12-16T09:39:54.586Z,16.80
2017-12-16T09:42:21.930Z,15.70
2017-12-16T09:44:48.707Z,16.33
2017-12-16T09:47:15.180Z,16.30
2017-12-16T09:49:41.592Z,16.77
2017-12-16T09:52:09.101Z,16.90
2017-12-16T09:54:35.475Z,16.17
2017-12-16T09:57:01.777Z,17.40
2017-12-16T09:59:28.680Z,16.53
2017-12-16T10:04:46.608Z,16.60
2017-12-16T10:07:13.457Z,15.90
2017-12-16T10:09:40.070Z,16.97
2017-12-16T10:12:07.534Z,17.73
2017-12-16T10:14:34.106Z,16.97
2017-12-16T10:17:00.658Z,18.10
2017-12-16T10:19:28.011Z,18.60
2017-12-16T10:21:55.105Z,17.23
2017-12-16T10:24:21.410Z,17.13
2017-12-16T10:26:50.613Z,16.27
2017-12-16T10:29:17.701Z,17.77
2017-12-16T10:31:44.401Z,18.23
2017-12-16T10:34:10.936Z,17.50
2017-12-16T10:36:37.393Z,19.40
2017-12-16T10:39:04.011Z,19.20
2017-12-16T10:41:31.968Z,17.50
2017-12-16T10:43:58.645Z,17.63
2017-12-16T10:46:25.107Z,17.17
2017-12-16T10:48:51.842Z,18.70
2017-12-16T10:51:18.119Z,18.80
2017-12-16T10:53:44.836Z,17.40
2017-12-16T10:56:11.368Z,18.47
2017-12-16T10:58:38.423Z,18.33
2017-12-16T11:01:04.790Z,17.47
2017-12-16T11:03:32.054Z,16.70
2017-12-16T11:06:00.450Z,19.50
2017-12-16T11:08:27.739Z,18.17
2017-12-16T11:10:54.066Z,19.30
2017-12-16T11:13:21.377Z,18.30
2017-12-16T11:15:48.081Z,20.50
2017-12-16T11:18:14.716Z,19.10
2017-12-16T11:20:41.067Z,18.53
2017-12-16T11:23:07.519Z,19.70
2017-12-16T11:25:36.426Z,20.07
2017-12-16T11:28:03.810Z,19.03
2017-12-16T11:30:32.038Z,19.80
2017-12-16T11:32:58.330Z,18.57
2017-12-16T11:35:24.934Z,16.27
2017-12-16T11:37:51.384Z,17.67
2017-12-16T11:40:18.328Z,16.47
2017-12-16T11:42:45.052Z,15.43
2017-12-16T11:45:13.562Z,15.37
2017-12-16T11:47:40.782Z,16.20
2017-12-16T11:50:08.334Z,14.83
2017-12-16T11:52:34.804Z,14.90
2017-12-16T11:55:02.339Z,14.37
2017-12-16T11:57:30.473Z,13.80
2017-12-16T11:59:58.031Z,13.97
2017-12-16T12:02:25.120Z,13.57
2017-12-16T12:04:51.983Z,14.67
2017-12-16T12:07:18.442Z,12.93
2017-12-16T12:09:45.403Z,12.90
2017-12-16T12:12:13.853Z,12.70
2017-12-16T12:14:40.663Z,13.73
2017-12-16T12:17:07.307Z,11.40
2017-12-16T12:19:34.143Z,12.10
2017-12-16T12:22:00.852Z,10.93
2017-12-16T12:24:29.872Z,12.60
2017-12-16T12:26:59.467Z,12.33
2017-12-16T12:29:26.092Z,10.40
2017-12-16T12:31:52.789Z,9.53
2017-12-16T12:34:19.535Z,10.70
2017-12-16T12:36:50.459Z,9.03
2017-12-16T12:39:19.344Z,8.23
2017-12-16T12:41:46.055Z,7.27
2017-12-16T12:44:12.799Z,8.70
2017-12-16T12:46:39.398Z,8.13
2017-12-16T12:49:06.264Z,7.70
2017-12-16T12:51:33.774Z,8.10
2017-12-16T12:54:01.362Z,8.40
2017-12-16T12:56:30.586Z,7.73
2017-12-16T12:58:57.374Z,8.00
2017-12-16T13:01:23.928Z,8.37
2017-12-16T13:03:51.444Z,8.57
2017-12-16T13:06:17.884Z,8.33
2017-12-16T13:08:44.497Z,8.73
2017-12-16T13:11:10.815Z,7.90
2017-12-16T13:13:37.314Z,7.40
2017-12-16T13:16:05.833Z,7.60
2017-12-16T13:18:32.275Z,7.27
2017-12-16T13:20:58.934Z,7.43
2017-12-16T13:23:25.412Z,8.17
2017-12-16T13:25:54.910Z,7.93
2017-12-16T13:28:21.615Z,7.70
2017-12-16T13:30:51.019Z,7.40
2017-12-16T13:33:18.185Z,8.47
2017-12-16T13:35:45.614Z,8.40
2017-12-16T13:38:12.146Z,9.20
2017-12-16T13:40:38.706Z,8.30
2017-12-16T13:43:06.554Z,8.33
2017-12-16T13:45:33.204Z,8.87
2017-12-16T13:48:01.135Z,9.00
2017-12-16T13:50:27.964Z,8.30
2017-12-16T13:52:55.504Z,9.47
2017-12-16T13:55:22.314Z,9.50
2017-12-16T13:57:49.750Z,7.83
2017-12-16T14:00:16.524Z,7.50
2017-12-16T14:02:43.024Z,7.87
2017-12-16T14:05:09.725Z,8.53
2017-12-16T14:07:39.026Z,7.43
2017-12-16T14:10:05.480Z,8.00
2017-12-16T14:12:32.184Z,7.53
2017-12-16T14:14:59.343Z,7.17
2017-12-16T14:17:25.754Z,9.03
2017-12-16T14:19:52.975Z,8.27
2017-12-16T14:22:19.535Z,6.53
2017-12-16T14:24:46.054Z,7.60
2017-12-16T14:27:12.744Z,8.03
2017-12-16T14:29:39.226Z,7.33
2017-12-16T14:32:05.575Z,7.80
2017-12-16T14:34:33.563Z,7.73
2017-12-16T14:37:00.337Z,8.60
2017-12-16T14:39:26.674Z,8.57
2017-12-16T14:41:53.268Z,8.00
2017-12-16T14:44:21.583Z,8.53
2017-12-16T14:46:48.223Z,8.07
2017-12-16T14:49:14.686Z,9.10
2017-12-16T14:51:41.183Z,8.17
2017-12-16T14:54:07.634Z,6.80
2017-12-16T14:56:34.863Z,6.93
2017-12-16T14:59:01.474Z,6.43
2017-12-16T15:01:27.934Z,7.50
2017-12-16T15:03:54.354Z,6.80
2017-12-16T15:06:21.264Z,7.13
2017-12-16T15:08:47.803Z,6.40
2017-12-16T15:11:14.344Z,7.13
2017-12-16T15:13:42.104Z,7.23
2017-12-16T15:16:08.875Z,8.27
2017-12-16T15:18:35.192Z,9.40
2017-12-16T15:21:02.783Z,7.40
2017-12-16T15:23:29.882Z,7.10
2017-12-16T15:25:56.423Z,8.40
2017-12-16T15:28:23.094Z,7.07
2017-12-16T15:30:49.508Z,6.40
2017-12-16T15:33:15.974Z,6.80
2017-12-16T15:35:44.234Z,6.63
2017-12-16T15:38:13.194Z,6.77
2017-12-16T15:40:41.368Z,6.03
2017-12-16T15:43:07.693Z,6.77
2017-12-16T15:45:33.990Z,5.80
2017-12-16T15:48:00.306Z,6.33
2017-12-16T15:50:27.494Z,7.47
2017-12-16T15:52:53.981Z,5.40
2017-12-16T15:55:22.709Z,7.67
2017-12-16T15:57:50.341Z,6.20
2017-12-16T16:00:18.628Z,6.10
2017-12-16T16:02:45.319Z,7.40
2017-12-16T16:05:11.672Z,7.03
2017-12-16T16:07:38.028Z,7.20
2017-12-16T16:10:05.067Z,7.20
2017-12-16T16:12:31.623Z,6.30
2017-12-16T16:14:58.252Z,6.90
2017-12-16T16:17:24.589Z,6.60
2017-12-16T16:19:50.927Z,6.90
2017-12-16T16:22:17.301Z,6.63
2017-12-16T16:24:46.234Z,7.73
2017-12-16T16:27:12.681Z,6.90
2017-12-16T16:29:41.218Z,6.00
2017-12-16T16:32:08.549Z,5.57
2017-12-16T16:34:35.077Z,6.17
2017-12-16T16:37:01.394Z,6.97
2017-12-16T16:39:27.700Z,6.40
2017-12-16T16:41:54.405Z,6.93
2017-12-16T16:44:21.374Z,5.87
2017-12-16T16:46:50.751Z,6.37
2017-12-16T16:49:17.960Z,5.40
2017-12-16T16:51:44.353Z,4.93
2017-12-16T16:54:10.864Z,5.60
2017-12-16T16:56:39.300Z,5.27
2017-12-16T16:59:05.881Z,5.40
2017-12-16T17:01:33.003Z,5.33
2017-12-16T17:03:59.385Z,6.20
2017-12-16T17:06:26.024Z,5.13
2017-12-16T17:08:52.488Z,5.20
2017-12-16T17:11:18.919Z,5.50
2017-12-16T17:13:45.381Z,4.47
2017-12-16T17:16:11.736Z,6.03
2017-12-16T17:18:38.150Z,5.30
2017-12-16T17:21:05.322Z,5.60
2017-12-16T17:23:31.815Z,3.87
2017-12-16T17:25:58.315Z,4.07
2017-12-16T17:28:25.006Z,3.80
2017-12-16T17:30:52.071Z,2.90
2017-12-16T17:33:20.058Z,3.40
2017-12-16T17:35:46.420Z,3.67
2017-12-16T17:38:12.735Z,2.93
2017-12-16T17:40:39.547Z,3.30
2017-12-16T17:43:06.120Z,3.00
2017-12-16T17:45:34.042Z,2.43
2017-12-16T17:48:00.512Z,3.10
2017-12-16T17:50:28.712Z,2.83
2017-12-16T17:52:56.631Z,2.53
2017-12-16T17:55:25.063Z,3.37
2017-12-16T17:57:52.373Z,3.70
2017-12-16T18:00:19.083Z,3.93
2017-12-16T18:02:49.422Z,5.00
2017-12-16T18:05:16.363Z,4.33
2017-12-16T18:07:43.232Z,5.00
2017-12-16T18:10:09.788Z,4.93
2017-12-16T18:12:38.144Z,4.20
2017-12-16T18:15:04.697Z,4.53
2017-12-16T18:17:31.803Z,4.23
2017-12-16T18:19:58.393Z,4.73
2017-12-16T18:22:25.703Z,4.80
2017-12-16T18:24:52.632Z,4.93
2017-12-16T18:27:29.431Z,5.17
2017-12-16T18:29:56.243Z,5.93
2017-12-16T18:32:23.007Z,5.30
2017-12-16T18:34:49.331Z,5.57
2017-12-16T18:37:16.132Z,5.40
2017-12-16T18:39:43.302Z,4.80
2017-12-16T18:42:09.942Z,6.13
2017-12-16T18:44:36.251Z,4.50
2017-12-16T18:47:02.617Z,5.07
2017-12-16T18:49:29.565Z,5.30
2017-12-16T18:51:56.087Z,5.43
2017-12-16T18:54:22.451Z,5.57
2017-12-16T18:56:49.906Z,5.60
2017-12-16T18:59:23.380Z,5.00
2017-12-16T19:01:49.814Z,5.47
2017-12-16T19:04:17.648Z,4.80
2017-12-16T19:06:45.762Z,5.07
2017-12-16T19:09:12.080Z,5.47
2017-12-16T19:11:38.644Z,5.17
2017-12-16T19:14:05.675Z,5.10
2017-12-16T19:16:31.968Z,4.50
2017-12-16T19:18:58.287Z,3.97
2017-12-16T19:21:24.738Z,4.73
2017-12-16T19:23:51.431Z,5.10
2017-12-16T19:26:19.158Z,5.10
2017-12-16T19:28:45.981Z,5.20
2017-12-16T19:31:12.355Z,4.63
2017-12-16T19:33:39.610Z,5.10
2017-12-16T19:36:06.807Z,5.13
2017-12-16T19:38:33.267Z,4.57
2017-12-16T19:40:59.568Z,5.07
2017-12-16T19:43:27.134Z,4.50
2017-12-16T19:45:54.698Z,4.97
2017-12-16T19:48:21.404Z,5.43
2017-12-16T19:50:47.850Z,5.00
2017-12-16T19:53:14.139Z,5.30
2017-12-16T19:55:41.150Z,5.80
2017-12-16T19:58:07.643Z,5.20
2017-12-16T20:00:34.121Z,5.97
2017-12-16T20:03:00.791Z,5.57
2017-12-16T20:05:28.196Z,5.50
2017-12-16T20:07:54.674Z,5.07
2017-12-16T20:10:21.521Z,5.37
2017-12-16T20:12:48.544Z,4.90
2017-12-16T20:15:22.164Z,4.57
2017-12-16T20:17:49.648Z,4.90
2017-12-16T20:20:16.822Z,4.57
2017-12-16T20:22:44.270Z,4.70
2017-12-16T20:25:10.810Z,5.07
2017-12-16T20:27:37.293Z,5.30
2017-12-16T20:30:03.579Z,4.80
2017-12-16T20:32:30.035Z,5.90
2017-12-16T20:34:56.641Z,4.83
2017-12-16T20:37:23.092Z,5.20
2017-12-16T20:39:50.411Z,6.00
2017-12-16T20:42:16.781Z,4.60
2017-12-16T20:44:44.185Z,5.50
2017-12-16T20:47:10.524Z,4.73
2017-12-16T20:49:36.914Z,4.40
2017-12-16T20:52:04.663Z,5.30
2017-12-16T20:54:31.304Z,5.43
2017-12-16T20:56:57.897Z,6.03
2017-12-16T20:59:26.132Z,5.97
2017-12-16T21:01:52.890Z,5.50
2017-12-16T21:04:22.198Z,5.53
2017-12-16T21:06:49.286Z,5.13
2017-12-16T21:09:16.274Z,5.00
2017-12-16T21:11:42.571Z,5.87
2017-12-16T21:14:09.491Z,5.10
2017-12-16T21:16:36.802Z,5.60
2017-12-16T21:19:03.080Z,5.57
2017-12-16T21:21:29.762Z,5.73
2017-12-16T21:23:56.779Z,5.53
2017-12-16T21:26:23.992Z,5.30
2017-12-16T21:28:50.431Z,5.37
2017-12-16T21:31:17.139Z,5.20
2017-12-16T21:33:43.976Z,4.93
2017-12-16T21:36:10.847Z,5.30
2017-12-16T21:38:38.572Z,5.57
2017-12-16T21:41:05.801Z,5.30
2017-12-16T21:43:32.382Z,5.50
2017-12-16T21:45:58.849Z,5.60
2017-12-16T21:48:26.277Z,4.80
2017-12-16T21:50:52.771Z,6.10
2017-12-16T21:53:19.821Z,7.23
2017-12-16T21:55:48.191Z,5.53
2017-12-16T21:58:16.401Z,4.87
2017-12-16T22:00:43.577Z,5.73
2017-12-16T22:03:09.961Z,6.40
2017-12-16T22:05:36.391Z,5.30
2017-12-16T22:08:02.927Z,5.30
2017-12-16T22:10:30.331Z,5.00
2017-12-16T22:12:56.912Z,4.20
2017-12-16T22:15:25.632Z,4.70
2017-12-16T22:17:52.028Z,4.80
2017-12-16T22:20:19.188Z,5.40
2017-12-16T22:22:46.647Z,4.63
2017-12-16T22:25:12.900Z,4.37
2017-12-16T22:27:39.398Z,4.57
2017-12-16T22:30:07.382Z,4.50
2017-12-16T22:32:33.952Z,3.87
2017-12-16T22:35:00.476Z,3.80
2017-12-16T22:37:27.814Z,3.33
2017-12-16T22:39:54.846Z,3.70
2017-12-16T22:42:23.384Z,3.70
2017-12-16T22:44:49.777Z,3.07
2017-12-16T22:47:16.296Z,3.73
2017-12-16T22:49:43.534Z,3.80
2017-12-16T22:52:10.783Z,2.90
2017-12-16T22:54:37.288Z,3.60
2017-12-16T22:57:03.983Z,3.60
2017-12-16T22:59:31.977Z,3.50
2017-12-16T23:01:58.477Z,3.87
2017-12-16T23:04:28.078Z,4.00
2017-12-16T23:06:54.535Z,3.50
2017-12-16T23:09:20.836Z,3.77
2017-12-16T23:11:50.171Z,3.33
2017-12-16T23:14:16.492Z,3.10
2017-12-16T23:16:42.951Z,2.90
2017-12-16T23:19:09.554Z,3.20
2017-12-16T23:21:36.231Z,3.90
2017-12-16T23:24:02.819Z,3.87
2017-12-16T23:26:29.338Z,3.57
2017-12-16T23:28:55.795Z,3.17
2017-12-16T23:31:22.278Z,2.60
2017-12-16T23:33:49.360Z,3.10
2017-12-16T23:36:15.849Z,2.70
2017-12-16T23:38:42.162Z,2.90
2017-12-16T23:41:10.319Z,3.10
2017-12-16T23:43:36.630Z,3.07
2017-12-16T23:46:02.895Z,3.27
2017-12-16T23:48:30.339Z,2.90
2017-12-16T23:50:56.676Z,3.00
2017-12-16T23:53:22.969Z,3.50
2017-12-16T23:55:49.258Z,3.20
2017-12-16T23:58:16.311Z,4.43
